^^
Datos históricos de la estación: Murcia-Puente Tocinos
Diario Informe para Agosto 29, 2019 Unidades:  Ingés    Métrico   Ambas
Diario Semanal Mensual Anual
  Máxima: Mínima: Promedio:
Temperatura: 60.6 °F 47.8 °F 52.5 °F
Punto de rocio: 49.3 °F 45.1 °F 47.5 °F
Humedad: 96% 63.3% 84%
Velocidad viento: 5.4mph 0mph 2.5mph
Racha viento: 9mph - -
Viento- - SSE
Presión: 30.5 in 30.4 in -
Precipitación: 0.01 in    
 
 
Tabla de datos para Agosto 29, 2019
Hora Temperatura Punto de rocio Presión Viento Velocidad viento Racha viento Humedad Intensidad lluvia(por hora) Nubes
00:04 49.5 °F 46.8 °F 30.4 in ENE 0.9 mph 3 mph 90% 0 in
00:09 49.5 °F 46.6 °F 30.4 in ENE 1.4 mph 4.7 mph 90% 0 in
00:14 48.9 °F 46.2 °F 30.4 in Este 1.6 mph 5 mph 90% 0 in
00:19 48.7 °F 46 °F 30.4 in ENE 1.8 mph 4.6 mph 90% 0 in
00:24 48.6 °F 45.9 °F 30.4 in Este 1.9 mph 5 mph 90% 0 in
00:29 48.4 °F 45.7 °F 30.4 in SE 2 mph 5.2 mph 90% 0 in
00:34 48.2 °F 45.5 °F 30.4 in SE 2.9 mph 5.9 mph 90.3% 0 in
00:39 48.2 °F 45.7 °F 30.4 in Sur 3.6 mph 6.9 mph 91% 0 in
00:44 48.6 °F 46.2 °F 30.4 in Sur 4 mph 7 mph 91.8% 0 in
00:49 48.7 °F 46.6 °F 30.4 in SSO 4.3 mph 8.1 mph 92% 0 in
00:54 49.1 °F 47.1 °F 30.4 in SSO 4.5 mph 8.1 mph 92.6% 0 in
00:59 49.5 °F 47.3 °F 30.4 in SO 4.7 mph 7 mph 93% 0 in
01:04 49.5 °F 47.5 °F 30.4 in SO 4.4 mph 7 mph 93% 0 in
01:09 49.5 °F 47.7 °F 30.4 in SO 4.3 mph 7 mph 93.3% 0 in
01:14 49.6 °F 48 °F 30.4 in SSO 4.1 mph 7 mph 94% 0 in
01:19 49.6 °F 48 °F 30.4 in Sur 4 mph 7.4 mph 94% 0 in
01:24 49.6 °F 47.8 °F 30.4 in SSO 4.2 mph 7 mph 94% 0 in
01:29 49.6 °F 48.2 °F 30.4 in SSO 4.3 mph 7 mph 94.4% 0 in
01:34 49.6 °F 48.4 °F 30.4 in SO 4.1 mph 6 mph 95% 0 in
01:39 49.6 °F 48.4 °F 30.4 in SO 4 mph 6 mph 95% 0 in
01:44 49.8 °F 48.4 °F 30.4 in SO 3 mph 5 mph 95% 0 in
01:49 49.8 °F 48.4 °F 30.4 in SO 2.4 mph 5.2 mph 95% 0 in
01:54 49.8 °F 48.4 °F 30.4 in Sur 2.7 mph 5.8 mph 95% 0 in
01:59 49.8 °F 48.4 °F 30.4 in SE 2.9 mph 6 mph 95% 0 in
02:04 49.6 °F 48.4 °F 30.4 in ESE 3 mph 5.2 mph 95% 0 in
02:09 49.5 °F 48 °F 30.4 in ESE 3.1 mph 5.2 mph 95% 0 in
02:14 49.3 °F 47.8 °F 30.4 in SE 3.1 mph 5.2 mph 95% 0 in
02:19 49.3 °F 47.8 °F 30.4 in SE 3.1 mph 5 mph 95% 0 in
02:24 49.3 °F 47.8 °F 30.4 in SE 3 mph 5 mph 95% 0 in
02:29 49.5 °F 48 °F 30.4 in SE 2.9 mph 5 mph 95.1% 0 in
02:34 49.5 °F 48 °F 30.4 in SE 2.9 mph 6.4 mph 95% 0 in
02:39 49.5 °F 48.2 °F 30.4 in SSE 2.9 mph 7 mph 95% 0 in
02:44 49.6 °F 48.6 °F 30.4 in SE 3.5 mph 6 mph 95.9% 0 in
02:49 49.6 °F 48.6 °F 30.4 in SSE 4 mph 6 mph 96% 0 in
02:54 49.8 °F 48.7 °F 30.4 in Sur 3.5 mph 5.2 mph 96% 0 in
02:59 50 °F 48.9 °F 30.4 in Sur 3.1 mph 5.8 mph 96% 0 in
03:04 50.2 °F 49.1 °F 30.4 in SSE 3 mph 6 mph 96% 0 in
03:09 50.2 °F 49.1 °F 30.4 in Sur 2.9 mph 4.6 mph 96% 0 in
03:14 50.4 °F 49.3 °F 30.4 in Sur 2.6 mph 5 mph 96% 0 in
03:19 50.4 °F 49.3 °F 30.4 in SSO 2.4 mph 5 mph 96% 0 in
03:24 50.4 °F 49.1 °F 30.4 in SE 2.7 mph 5 mph 95.3% 0 in
03:29 50 °F 48.7 °F 30.4 in ESE 2.9 mph 5 mph 95% 0 in
03:34 49.8 °F 48.4 °F 30.4 in SE 2.5 mph 5 mph 95% 0 in
03:39 49.8 °F 48.4 °F 30.4 in SSE 2.4 mph 5 mph 95% 0 in
03:44 49.6 °F 48.4 °F 30.4 in SSE 2.7 mph 5 mph 95% 0 in
03:49 49.6 °F 48.2 °F 30.4 in SSE 2.9 mph 5 mph 95% 0 in
03:54 49.5 °F 48 °F 30.4 in SSE 2.9 mph 5 mph 95% 0 in
03:59 49.5 °F 48 °F 30.4 in SSE 2.9 mph 5 mph 95% 0 in
04:04 49.3 °F 47.8 °F 30.4 in Sur 2.2 mph 4.6 mph 95% 0 in
04:09 49.1 °F 47.7 °F 30.4 in SE 1.8 mph 5.2 mph 95% 0 in
04:14 48.9 °F 47.7 °F 30.4 in SE 2.5 mph 5 mph 95% 0 in
04:19 48.7 °F 47.5 °F 30.4 in SSE 2.9 mph 5 mph 95% 0 in
04:24 48.7 °F 47.5 °F 30.4 in SE 2.6 mph 5 mph 95% 0 in
04:29 48.7 °F 47.5 °F 30.4 in SE 2.4 mph 4 mph 95% 0 in
04:34 48.6 °F 47.3 °F 30.4 in SE 2.2 mph 5 mph 95% 0 in
04:39 48.6 °F 47.1 °F 30.4 in SSE 2 mph 5.2 mph 95% 0 in
04:44 48.6 °F 47.1 °F 30.4 in SSE 2.7 mph 6.4 mph 95% 0 in
04:49 48.6 °F 47.1 °F 30.4 in Sur 3.1 mph 7 mph 95% 0 in
04:54 48.6 °F 47.1 °F 30.4 in SSO 3.4 mph 7 mph 95% 0 in
04:59 48.7 °F 47.3 °F 30.4 in SSO 3.6 mph 5 mph 95% 0 in
05:04 48.7 °F 47.7 °F 30.4 in SO 2.4 mph 4.7 mph 95.9% 0 in
05:09 49.1 °F 48 °F 30.4 in SSO 1.8 mph 6.2 mph 96% 0 in
05:14 49.3 °F 48 °F 30.4 in SSO 2.9 mph 6 mph 95.4% 0 in
05:19 49.3 °F 47.8 °F 30.4 in SSO 3.6 mph 5.8 mph 95% 0 in
05:24 49.3 °F 47.8 °F 30.4 in SO 3.6 mph 6 mph 95% 0 in
05:29 49.3 °F 47.8 °F 30.4 in SO 3.6 mph 6 mph 95% 0 in
05:34 49.3 °F 47.8 °F 30.4 in SO 2.5 mph 4 mph 95% 0 in
05:39 49.3 °F 47.8 °F 30.4 in SO 1.8 mph   95% 0 in
05:44 49.3 °F 47.7 °F 30.4 in SO 0.7 mph   94.7% 0 in
05:49 48.9 °F 47.3 °F 30.4 in Calm     94% 0 in
05:54 48.7 °F 47.3 °F 30.4 in Calm     94.6% 0 in
05:59 48.7 °F 47.3 °F 30.4 in Calm     95% 0 in
06:04 48.7 °F 47.5 °F 30.4 in Calm     95% 0 in
06:09 48.7 °F 47.5 °F 30.4 in Calm     95% 0 in
06:14 48.7 °F 47.5 °F 30.4 in Calm     95% 0.01 in
06:19 48.9 °F 47.7 °F 30.4 in Calm     95% 0.01 in
06:24 48.9 °F 47.7 °F 30.4 in Calm   4.6 mph 95% 0.01 in
06:29 48.7 °F 47.3 °F 30.4 in Calm   5 mph 94.3% 0.01 in
06:34 48.7 °F 47.1 °F 30.4 in SSO 1.5 mph 5 mph 94% 0.01 in
06:39 48.7 °F 47.1 °F 30.5 in SSO 2.4 mph 5 mph 94% 0.01 in
06:44 48.6 °F 46.9 °F 30.5 in SSO 0.9 mph 2 mph 94% 0.01 in
06:49 48.6 °F 46.9 °F 30.5 in Calm   4 mph 94% 0.01 in
06:54 48.6 °F 46.9 °F 30.5 in SSO 0.9 mph 5 mph 94% 0.01 in
06:59 48.6 °F 46.9 °F 30.5 in SO 1.4 mph 5 mph 94% 0.01 in
07:04 48.6 °F 46.9 °F 30.5 in SO 1.8 mph 4.6 mph 94% 0.01 in
07:09 48.6 °F 46.9 °F 30.5 in SO 2 mph 5 mph 94% 0.01 in
07:14 48.6 °F 46.9 °F 30.5 in OSO 2.2 mph 5 mph 94% 0.01 in
07:19 48.6 °F 46.6 °F 30.5 in OSO 2.4 mph 4 mph 93.1% 0 in
07:24 48.6 °F 46.6 °F 30.5 in SO 2.1 mph 5.8 mph 93% 0 in
07:29 48.6 °F 46.6 °F 30.5 in SO 1.8 mph 6 mph 93% 0 in
07:34 48.6 °F 46.6 °F 30.5 in OSO 2.5 mph 5 mph 93% 0 in
07:39 48.7 °F 46.8 °F 30.5 in OSO 2.9 mph 5 mph 93% 0 in
07:44 48.6 °F 46.6 °F 30.5 in OSO 2.2 mph 4.7 mph 93% 0 in
07:49 48.6 °F 46.6 °F 30.5 in SO 1.8 mph 5.8 mph 92.6% 0 in
07:54 48.4 °F 46.2 °F 30.5 in SO 2.5 mph 6 mph 92% 0 in
07:59 48.4 °F 46.2 °F 30.5 in SO 2.9 mph 6 mph 92% 0 in
08:04 48.4 °F 46.2 °F 30.5 in SO 3.4 mph 6 mph 92% 0 in
08:09 48.2 °F 46 °F 30.5 in OSO 3.6 mph 6 mph 92% 0 in
08:14 48.2 °F 45.7 °F 30.5 in SO 3.3 mph 6 mph 91.2% 0 in
08:19 48 °F 45.5 °F 30.5 in SO 3.1 mph 5 mph 91% 0 in
08:24 48 °F 45.5 °F 30.5 in OSO 2.4 mph 4.7 mph 91% 0 in
08:29 48 °F 45.5 °F 30.5 in OSO 2 mph 5 mph 91% 0 in
08:34 47.8 °F 45.1 °F 30.5 in OSO 2.2 mph 5 mph 90.4% 0 in
08:39 47.8 °F 45.1 °F 30.5 in SO 2.4 mph 5.8 mph 90.4% 0 in
08:44 47.8 °F 45.3 °F 30.5 in SO 2.7 mph 6 mph 91% 0 in
08:49 47.8 °F 45.3 °F 30.5 in SO 2.9 mph 5 mph 91% 0 in
08:54 48 °F 45.5 °F 30.5 in SSO 2.6 mph 5 mph 91% 0 in
08:59 48.2 °F 45.7 °F 30.5 in SSO 2.4 mph 5 mph 91% 0 in
09:04 48.4 °F 45.9 °F 30.5 in SO 2.9 mph 5.9 mph 91% 0 in
09:09 48.4 °F 45.9 °F 30.5 in SSO 3.1 mph 6 mph 91% 0 in
09:14 48.4 °F 45.9 °F 30.5 in SSO 2.7 mph 4 mph 91% 0 in
09:19 48.6 °F 46 °F 30.5 in SSO 2.4 mph 3 mph 91% 0 in
09:24 48.6 °F 46 °F 30.5 in SSO 0.9 mph 4 mph 91% 0 in
09:29 48.6 °F 46 °F 30.5 in Calm   5 mph 91% 0 in
09:34 48.6 °F 46 °F 30.5 in OSO 1.1 mph 5 mph 91% 0 in
09:39 48.6 °F 46 °F 30.5 in OSO 1.8 mph 4 mph 91% 0 in
09:44 48.6 °F 46 °F 30.5 in OSO 1.8 mph 3 mph 91% 0 in
09:49 48.7 °F 46.2 °F 30.5 in OSO 1.8 mph 3 mph 91% 0 in
09:54 48.7 °F 46 °F 30.5 in SSE 1.8 mph 4.6 mph 90.5% 0 in
09:59 48.7 °F 45.9 °F 30.5 in Este 1.8 mph 5 mph 90% 0 in
10:04 48.7 °F 46 °F 30.5 in Este 1.6 mph 2.9 mph 90.2% 0 in
10:09 49.1 °F 46.6 °F 30.5 in Este 1.4 mph 3 mph 91% 0 in
10:14 49.6 °F 46.9 °F 30.5 in Este 0.6 mph 3.5 mph 90.6% 0 in
10:19 49.8 °F 46.9 °F 30.5 in Calm   4.6 mph 89.9% 0 in
10:24 50 °F 46.9 °F 30.5 in OSO 1.2 mph 5 mph 89% 0 in
10:29 50.4 °F 47.1 °F 30.5 in SO 2 mph 5.8 mph 89% 0 in
10:34 50.5 °F 47.1 °F 30.5 in SO 2.7 mph 6 mph 88.2% 0 in
10:39 50.7 °F 47.1 °F 30.5 in SO 3.1 mph 5.9 mph 87.5% 0 in
10:44 51.1 °F 46.9 °F 30.5 in SSO 3.1 mph 6 mph 85.7% 0 in
10:49 51.3 °F 46.8 °F 30.5 in SSO 3.1 mph 6.9 mph 84.3% 0 in
10:54 51.6 °F 46.8 °F 30.5 in SSO 3.4 mph 8.1 mph 83.2% 0 in
10:59 52 °F 46.8 °F 30.5 in SSO 3.6 mph 8.1 mph 81.9% 0 in
11:04 52.3 °F 46.6 °F 30.5 in SSO 4.7 mph 8.1 mph 80.9% 0 in
11:09 52.5 °F 46.6 °F 30.5 in SSO 5.2 mph 8 mph 80.1% 0 in
11:14 52.9 °F 46.8 °F 30.5 in Sur 4.7 mph 7.4 mph 79.9% 0 in
11:19 52.9 °F 46.6 °F 30.5 in Sur 4.3 mph 8.5 mph 79% 0 in
11:24 53.1 °F 46.9 °F 30.5 in SSO 5 mph 9 mph 79.9% 0 in
11:29 53.1 °F 46.8 °F 30.5 in SSO 5.4 mph 8 mph 79.2% 0 in
11:34 53.1 °F 46.9 °F 30.5 in SSO 4.7 mph 7 mph 79.4% 0 in
11:39 53.4 °F 47.1 °F 30.5 in SSO 4.3 mph 7.6 mph 79.1% 0 in
11:44 53.6 °F 46.9 °F 30.5 in SSO 4.1 mph 8.1 mph 78% 0 in
11:49 53.8 °F 46.9 °F 30.5 in SSO 4 mph 8.5 mph 77.7% 0 in
11:54 53.6 °F 46.9 °F 30.5 in SSO 4.7 mph 9 mph 78% 0 in
11:59 53.8 °F 47.1 °F 30.5 in SO 5.2 mph 8 mph 78% 0 in
12:04 54.1 °F 47.3 °F 30.5 in SSO 4.6 mph 7 mph 77.4% 0 in
12:09 54.3 °F 47.1 °F 30.5 in SSO 4.3 mph 7 mph 76.5% 0 in
12:14 54.5 °F 47.1 °F 30.5 in SO 3.5 mph 6 mph 76% 0 in
12:19 54.9 °F 47.3 °F 30.5 in SO 3.1 mph 5.9 mph 75.6% 0 in
12:24 55 °F 47.1 °F 30.5 in Sur 3 mph 7.6 mph 74.4% 0 in
12:29 55 °F 46.9 °F 30.5 in OSO 2.9 mph 8.1 mph 74% 0 in
12:34 55 °F 47.1 °F 30.5 in SSO 4 mph 8 mph 74.5% 0 in
12:39 55.2 °F 47.1 °F 30.5 in SO 4.7 mph 6.2 mph 74.4% 0 in
12:44 55.4 °F 47.3 °F 30.5 in SO 3.7 mph 6 mph 74% 0 in
12:49 55.9 °F 47.7 °F 30.5 in SSO 3.1 mph 5 mph 73.4% 0 in
12:54 56.5 °F 47.5 °F 30.5 in SSO 2.7 mph 6.9 mph 71.7% 0 in
12:59 56.7 °F 47.3 °F 30.4 in Sur 2.4 mph 8.1 mph 71% 0 in
13:04 56.5 °F 47.1 °F 30.4 in Sur 3.9 mph 8 mph 71% 0 in
13:09 56.7 °F 47.3 °F 30.4 in SSO 4.7 mph 7 mph 71% 0 in
13:14 56.7 °F 47.3 °F 30.4 in OSO 4 mph 7 mph 70.8% 0 in
13:19 56.8 °F 47.5 °F 30.4 in Sur 3.6 mph 6 mph 71% 0 in
13:24 57 °F 47.5 °F 30.4 in SE 3.2 mph 5.9 mph 70.2% 0 in
13:29 57.4 °F 47.7 °F 30.4 in Sur 2.9 mph 6.9 mph 70% 0 in
13:34 57.4 °F 47.7 °F 30.4 in Sur 2.9 mph 7 mph 70% 0 in
13:39 57.6 °F 47.7 °F 30.4 in SO 2.9 mph 7 mph 69.3% 0 in
13:44 57.7 °F 47.7 °F 30.4 in ENE 2.4 mph 5 mph 69% 0 in
13:49 58.1 °F 47.7 °F 30.4 in SE 2 mph 5 mph 68.5% 0 in
13:54 58.5 °F 47.8 °F 30.4 in SE 1.9 mph 5 mph 68% 0 in
13:59 58.6 °F 47.8 °F 30.4 in Sur 1.8 mph 5 mph 67% 0 in
14:04 58.8 °F 47.8 °F 30.4 in Oeste 2.2 mph 5 mph 67% 0 in
14:09 58.8 °F 47.8 °F 30.4 in NO 2.4 mph 5 mph 67% 0 in
14:14 59 °F 47.8 °F 30.4 in SSE 2.4 mph 6.2 mph 66.5% 0 in
14:19 59.4 °F 47.8 °F 30.4 in ESE 2.4 mph 6 mph 65.7% 0 in
14:24 59.5 °F 47.8 °F 30.4 in Este 2.7 mph 5 mph 65% 0 in
14:29 59.5 °F 47.5 °F 30.4 in SE 2.9 mph 4.6 mph 64.3% 0 in
14:34 59.7 °F 47.5 °F 30.4 in SE 2.5 mph 5 mph 64% 0 in
14:39 59.7 °F 47.5 °F 30.4 in SSE 2.4 mph 5 mph 63.9% 0 in
14:44 59.7 °F 47.3 °F 30.4 in SSO 2.2 mph 5.9 mph 63.3% 0 in
14:49 59.7 °F 47.5 °F 30.4 in SSE 2 mph 6 mph 63.9% 0 in
14:54 59.5 °F 47.5 °F 30.4 in SE 2.7 mph 6.2 mph 63.9% 0 in
14:59 59.5 °F 47.3 °F 30.4 in SSO 3.1 mph 6 mph 64% 0 in
15:04 59.5 °F 47.3 °F 30.4 in NE 2.3 mph 6.4 mph 64% 0 in
15:09 59.5 °F 47.3 °F 30.4 in ESE 1.8 mph 7 mph 64.1% 0 in
15:14 59.5 °F 47.5 °F 30.4 in SE 1.9 mph 5 mph 64.5% 0 in
15:19 59.5 °F 47.8 °F 30.4 in Sur 2 mph 3 mph 65% 0 in
15:24 59.5 °F 47.7 °F 30.4 in OSO 1.9 mph 3.6 mph 64.4% 0 in
15:29 59.7 °F 47.8 °F 30.4 in SO 1.8 mph 4 mph 64.8% 0 in
15:34 59.9 °F 47.7 °F 30.4 in SSE 0.7 mph 3.5 mph 64% 0 in
15:39 59.9 °F 47.7 °F 30.4 in Calm   3.5 mph 64.1% 0 in
15:44 60.1 °F 48 °F 30.4 in NE 0.9 mph 3.6 mph 64.3% 0 in
15:49 60.1 °F 47.8 °F 30.4 in NE 1.4 mph 4 mph 64% 0 in
15:54 60.1 °F 47.8 °F 30.4 in ENE 1.6 mph 3 mph 64% 0 in
15:59 60.3 °F 48 °F 30.4 in ENE 1.8 mph 4.3 mph 64% 0 in
16:04 60.4 °F 48 °F 30.4 in ESE 1.6 mph 5 mph 63.8% 0 in
16:09 60.4 °F 48.2 °F 30.4 in ENE 1.4 mph 3.6 mph 63.8% 0 in
16:14 60.6 °F 48.4 °F 30.4 in NE 1.7 mph 5.4 mph 63.9% 0 in
16:19 60.4 °F 48.2 °F 30.4 in NE 2 mph 7.4 mph 64% 0 in
16:24 60.1 °F 48.2 °F 30.4 in NE 3.2 mph 7.6 mph 64.6% 0 in
16:29 59.9 °F 48 °F 30.4 in NE 4 mph 8.1 mph 65% 0 in
16:34 59.9 °F 48 °F 30.4 in NE 3.8 mph 6.2 mph 65% 0 in
16:39 59.7 °F 48 °F 30.4 in NE 3.6 mph 6 mph 65.2% 0 in
16:44 59.7 °F 48.2 °F 30.4 in NE 3.6 mph 6.9 mph 65.9% 0 in
16:49 59.7 °F 48.4 °F 30.4 in NE 3.6 mph 7 mph 66% 0 in
16:54 59.5 °F 48.2 °F 30.4 in NE 3.9 mph 8.1 mph 66% 0 in
16:59 59.5 °F 48.2 °F 30.4 in NE 4 mph 8 mph 66% 0 in
17:04 59.4 °F 48.2 °F 30.4 in NNE 4.2 mph 6.2 mph 66.5% 0 in
17:09 59.4 °F 48.4 °F 30.4 in NNE 4.3 mph 6 mph 67% 0 in
17:14 59.4 °F 48.4 °F 30.4 in NNE 3.9 mph 5.2 mph 67% 0 in
17:19 59.4 °F 48.4 °F 30.4 in NNE 3.6 mph 5.4 mph 67% 0 in
17:24 59.4 °F 48.4 °F 30.4 in NNE 3.2 mph 6 mph 67.3% 0 in
17:29 59.2 °F 48.6 °F 30.4 in NE 2.9 mph 6 mph 68% 0 in
17:34 59 °F 48.4 °F 30.4 in NE 3 mph 5.2 mph 68.2% 0 in
17:39 58.6 °F 48.6 °F 30.4 in NE 3.1 mph 5.8 mph 69% 0 in
17:44 58.5 °F 48.6 °F 30.4 in Este 3.4 mph 6 mph 69.4% 0 in
17:49 58.3 °F 48.6 °F 30.4 in ENE 3.6 mph 5.9 mph 70% 0 in
17:54 57.9 °F 48.6 °F 30.4 in Este 3.9 mph 6 mph 70.8% 0 in
17:59 57.7 °F 48.6 °F 30.4 in ENE 4 mph 6 mph 71% 0 in
18:04 57.7 °F 48.6 °F 30.4 in Este 3 mph 5.8 mph 71.3% 0 in
18:09 57.6 °F 48.6 °F 30.4 in ESE 2.4 mph 6 mph 72% 0 in
18:14 57.6 °F 48.6 °F 30.4 in ESE 3.2 mph 6 mph 72% 0 in
18:19 57.4 °F 48.6 °F 30.4 in ESE 4 mph 6 mph 72.3% 0 in
18:24 57 °F 48.4 °F 30.4 in Este 3.5 mph 5 mph 73% 0 in
18:29 56.8 °F 48.4 °F 30.4 in ENE 3.1 mph 5 mph 73.6% 0 in
18:34 56.7 °F 48.6 °F 30.4 in Este 2.7 mph 5 mph 74% 0 in
18:39 56.5 °F 48.4 °F 30.4 in Este 2.4 mph 5 mph 74.2% 0 in
18:44 56.5 °F 48.6 °F 30.4 in Este 2.2 mph 3.6 mph 75% 0 in
18:49 56.1 °F 48.4 °F 30.4 in Este 2 mph 4.6 mph 75% 0 in
18:54 55.9 °F 48.6 °F 30.4 in Este 2.2 mph 5 mph 75.9% 0 in
18:59 55.9 °F 48.4 °F 30.4 in ESE 2.4 mph 5.9 mph 76% 0 in
19:04 55.8 °F 48.6 °F 30.4 in ESE 3.2 mph 6.9 mph 76.7% 0 in
19:09 55.8 °F 48.7 °F 30.4 in ESE 3.6 mph 7 mph 77% 0 in
19:14 55.8 °F 48.7 °F 30.4 in ESE 4 mph 7 mph 77% 0 in
19:19 55.6 °F 48.6 °F 30.4 in ESE 4.3 mph 6 mph 77% 0 in
19:24 55.2 °F 48.2 °F 30.4 in Este 3.9 mph 6.2 mph 77% 0 in
19:29 55 °F 48.2 °F 30.4 in NE 3.6 mph 6 mph 77.7% 0 in
19:34 54.9 °F 48 °F 30.4 in NE 2.9 mph 5 mph 78% 0 in
19:39 54.5 °F 48 °F 30.4 in NE 2.4 mph 4.6 mph 78.6% 0 in
19:44 54.3 °F 47.8 °F 30.4 in NE 2.4 mph 5 mph 79% 0 in
19:49 54.1 °F 47.8 °F 30.4 in NNE 2.4 mph 5.8 mph 79.3% 0 in
19:54 54 °F 47.8 °F 30.4 in NNE 2.7 mph 6 mph 80.2% 0 in
19:59 53.4 °F 47.8 °F 30.4 in NNO 2.9 mph 5.2 mph 81.3% 0 in
20:04 53.2 °F 47.8 °F 30.4 in NNE 2.5 mph 5 mph 82% 0 in
20:09 53.1 °F 48 °F 30.4 in NNE 2.4 mph 5 mph 83% 0 in
20:14 53.1 °F 48 °F 30.4 in NNE 2.4 mph 4.3 mph 83% 0 in
20:19 53.1 °F 48.2 °F 30.4 in NNO 2.4 mph 5 mph 83.6% 0 in
20:24 53.1 °F 48.2 °F 30.4 in NNO 2.2 mph 6.2 mph 83.6% 0 in
20:29 52.9 °F 48.2 °F 30.4 in North 2 mph 6 mph 84% 0 in
20:34 52.9 °F 48.2 °F 30.4 in North 2.7 mph 6 mph 84% 0 in
20:39 52.5 °F 47.8 °F 30.4 in North 3.1 mph 5 mph 84% 0 in
20:44 52.5 °F 47.8 °F 30.4 in NNE 2.4 mph 5 mph 84.4% 0 in
20:49 52.3 °F 48 °F 30.4 in NNE 2 mph 5.2 mph 85% 0 in
20:54 52.2 °F 47.8 °F 30.4 in NNE 2.5 mph 5.2 mph 85% 0 in
20:59 52.2 °F 47.8 °F 30.4 in NNE 2.9 mph 5.9 mph 85% 0 in
21:04 52 °F 47.7 °F 30.4 in NNE 3 mph 6 mph 85% 0 in
21:09 52 °F 47.7 °F 30.4 in NNE 3.1 mph 5 mph 85% 0 in
21:14 52 °F 47.5 °F 30.4 in NNE 2.3 mph 3 mph 85% 0 in
21:19 51.8 °F 47.3 °F 30.4 in North 1.8 mph 3.5 mph 85% 0 in
21:24 51.4 °F 47.1 °F 30.4 in North 1.8 mph 3 mph 85% 0 in
21:29 51.4 °F 47.1 °F 30.4 in North 1.8 mph 2.9 mph 85.5% 0 in
21:34 51.3 °F 47.1 °F 30.4 in North 1.6 mph 3 mph 86% 0 in
21:39 51.1 °F 46.9 °F 30.4 in North 1.4 mph 3 mph 86% 0 in
21:44 50.9 °F 46.9 °F 30.4 in North 1.4 mph 3 mph 86% 0 in
21:49 50.7 °F 46.8 °F 30.4 in North 1.4 mph   86% 0 in
21:54 50.7 °F 46.9 °F 30.4 in North 0.6 mph   86.7% 0 in
21:59 50.7 °F 46.9 °F 30.4 in Calm     87% 0 in
22:04 50.7 °F 46.9 °F 30.4 in Calm     87% 0 in
22:09 50.7 °F 46.9 °F 30.4 in Calm     87% 0 in
22:14 50.7 °F 47.1 °F 30.4 in Calm   4.6 mph 87% 0 in
22:19 50.7 °F 46.8 °F 30.4 in Calm   5 mph 86.3% 0 in
22:24 50.7 °F 46.8 °F 30.4 in Este 1.4 mph 5 mph 86% 0 in
22:29 50.5 °F 46.6 °F 30.4 in ESE 2.4 mph 5 mph 86% 0 in
22:34 50.5 °F 46.6 °F 30.4 in ESE 2.2 mph 5 mph 86% 0 in
22:39 50.5 °F 46.8 °F 30.4 in ESE 2 mph 3 mph 86.8% 0 in
22:44 50.5 °F 46.8 °F 30.4 in ESE 0.7 mph 2 mph 87% 0 in
22:49 50.7 °F 46.9 °F 30.4 in Calm     87% 0 in
22:54 50.7 °F 46.9 °F 30.4 in Calm     87% 0 in
22:59 50.7 °F 46.9 °F 30.4 in Calm     87% 0 in
23:04 50.7 °F 46.9 °F 30.4 in Calm     87% 0 in
23:09 50.7 °F 47.1 °F 30.4 in Calm     87% 0 in
23:14 50.9 °F 47.1 °F 30.4 in Calm     87% 0 in
23:19 50.9 °F 47.1 °F 30.4 in Calm     87% 0 in
23:24 50.7 °F 47.1 °F 30.4 in Calm     87% 0 in
23:29 50.7 °F 47.1 °F 30.4 in Calm     87% 0 in
23:34 50.7 °F 46.9 °F 30.4 in Calm     87% 0 in
23:39 50.7 °F 46.9 °F 30.4 in Calm     87% 0 in
23:44 50.7 °F 46.9 °F 30.4 in Calm     87% 0 in
23:49 50.7 °F 46.9 °F 30.4 in Calm     87% 0 in
23:54 50.7 °F 46.9 °F 30.4 in Calm     87% 0 in
23:59 50.7 °F 46.9 °F 30.4 in Calm     87% 0 in
Murcia-Puente Tocinos, Espa?a
Compliments of Weather Underground - 3 mb

La estación de MeteoMurcia.com, publica sus datos en los siguientes proyectos:

Weather Underground PWS IMURCIAP2 Meteoclimatic www.awekas.at

W3Counter
Web Analytics